sensor_id;sensor_type;location;lat;lon;timestamp;temperature;humidity
34768;DHT22;21755;43.608;1.236;2023-02-15T00:01:11;8.00;99.90
34768;DHT22;21755;43.608;1.236;2023-02-15T00:03:38;8.00;99.90
34768;DHT22;21755;43.608;1.236;2023-02-15T00:06:04;8.00;99.90
34768;DHT22;21755;43.608;1.236;2023-02-15T00:08:31;8.00;99.90
34768;DHT22;21755;43.608;1.236;2023-02-15T00:11:09;7.90;99.90
34768;DHT22;21755;43.608;1.236;2023-02-15T00:13:35;7.90;99.90
34768;DHT22;21755;43.608;1.236;2023-02-15T00:16:05;7.90;99.90
34768;DHT22;21755;43.608;1.236;2023-02-15T00:18:32;7.90;99.90
34768;DHT22;21755;43.608;1.236;2023-02-15T00:20:58;7.80;99.90
34768;DHT22;21755;43.608;1.236;2023-02-15T00:23:28;7.90;99.90
34768;DHT22;21755;43.608;1.236;2023-02-15T00:26:06;7.80;99.90
34768;DHT22;21755;43.608;1.236;2023-02-15T00:28:32;7.80;99.90
34768;DHT22;21755;43.608;1.236;2023-02-15T00:31:09;7.80;99.90
34768;DHT22;21755;43.608;1.236;2023-02-15T00:33:35;7.70;99.90
34768;DHT22;21755;43.608;1.236;2023-02-15T00:36:03;7.70;99.90
34768;DHT22;21755;43.608;1.236;2023-02-15T00:38:30;7.70;99.90
34768;DHT22;21755;43.608;1.236;2023-02-15T00:40:57;7.70;99.90
34768;DHT22;21755;43.608;1.236;2023-02-15T00:43:25;7.60;99.90
34768;DHT22;21755;43.608;1.236;2023-02-15T00:45:51;7.70;99.90
34768;DHT22;21755;43.608;1.236;2023-02-15T00:48:17;7.70;99.90
34768;DHT22;21755;43.608;1.236;2023-02-15T00:50:48;7.70;99.90
34768;DHT22;21755;43.608;1.236;2023-02-15T00:53:14;7.60;99.90
34768;DHT22;21755;43.608;1.236;2023-02-15T00:55:40;7.60;99.90
34768;DHT22;21755;43.608;1.236;2023-02-15T00:58:07;7.60;99.90
34768;DHT22;21755;43.608;1.236;2023-02-15T01:00:33;7.50;99.90
34768;DHT22;21755;43.608;1.236;2023-02-15T01:02:59;7.50;99.90
34768;DHT22;21755;43.608;1.236;2023-02-15T01:05:24;7.50;99.90
34768;DHT22;21755;43.608;1.236;2023-02-15T01:07:50;7.50;99.90
34768;DHT22;21755;43.608;1.236;2023-02-15T01:10:16;7.50;99.90
34768;DHT22;21755;43.608;1.236;2023-02-15T01:12:42;7.50;99.90
34768;DHT22;21755;43.608;1.236;2023-02-15T01:15:09;7.40;99.90
34768;DHT22;21755;43.608;1.236;2023-02-15T01:17:35;7.50;99.90
34768;DHT22;21755;43.608;1.236;2023-02-15T01:20:01;7.40;99.90
34768;DHT22;21755;43.608;1.236;2023-02-15T01:22:27;7.50;99.90
34768;DHT22;21755;43.608;1.236;2023-02-15T01:24:53;7.40;99.90
34768;DHT22;21755;43.608;1.236;2023-02-15T01:27:19;7.40;99.90
34768;DHT22;21755;43.608;1.236;2023-02-15T01:29:45;7.40;99.90
34768;DHT22;21755;43.608;1.236;2023-02-15T01:32:10;7.40;99.90
34768;DHT22;21755;43.608;1.236;2023-02-15T01:34:36;7.30;99.90
34768;DHT22;21755;43.608;1.236;2023-02-15T01:37:02;7.30;99.90
34768;DHT22;21755;43.608;1.236;2023-02-15T01:39:28;7.30;99.90
34768;DHT22;21755;43.608;1.236;2023-02-15T01:41:54;7.30;99.90
34768;DHT22;21755;43.608;1.236;2023-02-15T01:44:45;7.30;99.90
34768;DHT22;21755;43.608;1.236;2023-02-15T01:47:16;7.30;99.90
34768;DHT22;21755;43.608;1.236;2023-02-15T01:49:45;7.30;99.90
34768;DHT22;21755;43.608;1.236;2023-02-15T01:52:14;7.30;99.90
34768;DHT22;21755;43.608;1.236;2023-02-15T01:54:45;7.30;99.90
34768;DHT22;21755;43.608;1.236;2023-02-15T01:57:17;7.30;99.90
34768;DHT22;21755;43.608;1.236;2023-02-15T01:59:46;7.30;99.90
34768;DHT22;21755;43.608;1.236;2023-02-15T02:02:15;7.20;99.90
34768;DHT22;21755;43.608;1.236;2023-02-15T02:04:49;7.20;99.90
34768;DHT22;21755;43.608;1.236;2023-02-15T02:07:17;7.20;99.90
34768;DHT22;21755;43.608;1.236;2023-02-15T02:09:44;7.20;99.90
34768;DHT22;21755;43.608;1.236;2023-02-15T02:12:11;7.20;99.90
34768;DHT22;21755;43.608;1.236;2023-02-15T02:14:37;7.20;99.90
34768;DHT22;21755;43.608;1.236;2023-02-15T02:17:21;7.20;99.90
34768;DHT22;21755;43.608;1.236;2023-02-15T02:23:14;7.10;99.90
34768;DHT22;21755;43.608;1.236;2023-02-15T02:36:49;7.00;99.90
34768;DHT22;21755;43.608;1.236;2023-02-15T02:39:37;7.00;99.90
34768;DHT22;21755;43.608;1.236;2023-02-15T02:42:38;7.00;99.90
34768;DHT22;21755;43.608;1.236;2023-02-15T02:45:17;7.00;99.90
34768;DHT22;21755;43.608;1.236;2023-02-15T02:47:48;7.00;99.90
34768;DHT22;21755;43.608;1.236;2023-02-15T02:50:23;6.90;99.90
34768;DHT22;21755;43.608;1.236;2023-02-15T02:52:51;6.90;99.90
34768;DHT22;21755;43.608;1.236;2023-02-15T02:55:35;6.90;99.90
34768;DHT22;21755;43.608;1.236;2023-02-15T02:58:19;6.90;99.90
34768;DHT22;21755;43.608;1.236;2023-02-15T03:03:34;6.90;99.90
34768;DHT22;21755;43.608;1.236;2023-02-15T03:06:16;6.80;99.90
34768;DHT22;21755;43.608;1.236;2023-02-15T03:08:49;6.80;99.90
34768;DHT22;21755;43.608;1.236;2023-02-15T03:11:16;6.80;99.90
34768;DHT22;21755;43.608;1.236;2023-02-15T03:13:44;6.80;99.90
34768;DHT22;21755;43.608;1.236;2023-02-15T03:16:12;6.80;99.90
34768;DHT22;21755;43.608;1.236;2023-02-15T03:19:06;6.80;99.90
34768;DHT22;21755;43.608;1.236;2023-02-15T03:21:43;6.80;99.90
34768;DHT22;21755;43.608;1.236;2023-02-15T03:24:21;6.80;99.90
34768;DHT22;21755;43.608;1.236;2023-02-15T03:26:48;6.70;99.90
34768;DHT22;21755;43.608;1.236;2023-02-15T03:29:17;6.70;99.90
34768;DHT22;21755;43.608;1.236;2023-02-15T03:31:47;6.70;99.90
34768;DHT22;21755;43.608;1.236;2023-02-15T03:34:17;6.60;99.90
34768;DHT22;21755;43.608;1.236;2023-02-15T03:36:45;6.60;99.90
34768;DHT22;21755;43.608;1.236;2023-02-15T03:39:37;6.50;99.90
34768;DHT22;21755;43.608;1.236;2023-02-15T03:42:26;6.50;99.90
34768;DHT22;21755;43.608;1.236;2023-02-15T03:45:10;6.40;99.90
34768;DHT22;21755;43.608;1.236;2023-02-15T03:47:40;6.40;99.90
34768;DHT22;21755;43.608;1.236;2023-02-15T03:50:20;6.30;99.90
34768;DHT22;21755;43.608;1.236;2023-02-15T03:53:09;6.20;99.90
34768;DHT22;21755;43.608;1.236;2023-02-15T03:55:36;6.10;99.90
34768;DHT22;21755;43.608;1.236;2023-02-15T03:58:03;6.10;99.90
34768;DHT22;21755;43.608;1.236;2023-02-15T04:00:58;6.10;99.90
34768;DHT22;21755;43.608;1.236;2023-02-15T04:03:48;6.00;99.90
34768;DHT22;21755;43.608;1.236;2023-02-15T04:06:15;6.00;99.90
34768;DHT22;21755;43.608;1.236;2023-02-15T04:08:41;5.90;99.90
34768;DHT22;21755;43.608;1.236;2023-02-15T04:11:25;5.90;99.90
34768;DHT22;21755;43.608;1.236;2023-02-15T04:13:51;5.90;99.90
34768;DHT22;21755;43.608;1.236;2023-02-15T04:16:25;5.80;99.90
34768;DHT22;21755;43.608;1.236;2023-02-15T04:18:51;5.80;99.90
34768;DHT22;21755;43.608;1.236;2023-02-15T04:21:35;5.80;99.90
34768;DHT22;21755;43.608;1.236;2023-02-15T04:24:20;5.70;99.90
34768;DHT22;21755;43.608;1.236;2023-02-15T04:27:05;5.70;99.90
34768;DHT22;21755;43.608;1.236;2023-02-15T04:29:31;5.60;99.90
34768;DHT22;21755;43.608;1.236;2023-02-15T04:32:00;5.60;99.90
34768;DHT22;21755;43.608;1.236;2023-02-15T04:34:27;5.70;99.90
34768;DHT22;21755;43.608;1.236;2023-02-15T04:36:52;5.70;99.90
34768;DHT22;21755;43.608;1.236;2023-02-15T04:39:19;5.70;99.90
34768;DHT22;21755;43.608;1.236;2023-02-15T04:41:45;5.60;99.90
34768;DHT22;21755;43.608;1.236;2023-02-15T04:44:11;5.60;99.90
34768;DHT22;21755;43.608;1.236;2023-02-15T04:46:37;5.60;99.90
34768;DHT22;21755;43.608;1.236;2023-02-15T04:49:03;5.50;99.90
34768;DHT22;21755;43.608;1.236;2023-02-15T04:51:29;5.50;99.90
34768;DHT22;21755;43.608;1.236;2023-02-15T04:53:55;5.40;99.90
34768;DHT22;21755;43.608;1.236;2023-02-15T04:56:22;5.40;99.90
34768;DHT22;21755;43.608;1.236;2023-02-15T04:58:48;5.40;99.90
34768;DHT22;21755;43.608;1.236;2023-02-15T05:01:14;5.40;99.90
34768;DHT22;21755;43.608;1.236;2023-02-15T05:03:40;5.40;99.90
34768;DHT22;21755;43.608;1.236;2023-02-15T05:06:06;5.40;99.90
34768;DHT22;21755;43.608;1.236;2023-02-15T05:08:32;5.40;99.90
34768;DHT22;21755;43.608;1.236;2023-02-15T05:10:58;5.40;99.90
34768;DHT22;21755;43.608;1.236;2023-02-15T05:13:24;5.30;99.90
34768;DHT22;21755;43.608;1.236;2023-02-15T05:15:51;5.20;99.90
34768;DHT22;21755;43.608;1.236;2023-02-15T05:18:19;5.20;99.90
34768;DHT22;21755;43.608;1.236;2023-02-15T05:20:45;5.10;99.90
34768;DHT22;21755;43.608;1.236;2023-02-15T05:23:11;5.20;99.90
34768;DHT22;21755;43.608;1.236;2023-02-15T05:25:37;5.10;99.90
34768;DHT22;21755;43.608;1.236;2023-02-15T05:28:25;5.10;99.90
34768;DHT22;21755;43.608;1.236;2023-02-15T05:33:31;5.00;99.90
34768;DHT22;21755;43.608;1.236;2023-02-15T05:35:57;5.00;99.90
34768;DHT22;21755;43.608;1.236;2023-02-15T05:38:23;5.00;99.90
34768;DHT22;21755;43.608;1.236;2023-02-15T05:40:51;5.00;99.90
34768;DHT22;21755;43.608;1.236;2023-02-15T05:43:17;5.10;99.90
34768;DHT22;21755;43.608;1.236;2023-02-15T05:45:51;5.00;99.90
34768;DHT22;21755;43.608;1.236;2023-02-15T05:48:18;4.90;99.90
34768;DHT22;21755;43.608;1.236;2023-02-15T05:50:45;4.70;99.90
34768;DHT22;21755;43.608;1.236;2023-02-15T05:53:11;4.60;99.90
34768;DHT22;21755;43.608;1.236;2023-02-15T05:55:38;4.60;99.90
34768;DHT22;21755;43.608;1.236;2023-02-15T05:58:05;4.60;99.90
34768;DHT22;21755;43.608;1.236;2023-02-15T06:00:31;4.60;99.90
34768;DHT22;21755;43.608;1.236;2023-02-15T06:02:57;4.60;99.90
34768;DHT22;21755;43.608;1.236;2023-02-15T06:05:23;4.60;99.90
34768;DHT22;21755;43.608;1.236;2023-02-15T06:07:49;4.50;99.90
34768;DHT22;21755;43.608;1.236;2023-02-15T06:10:15;4.60;99.90
34768;DHT22;21755;43.608;1.236;2023-02-15T06:12:41;4.60;99.90
34768;DHT22;21755;43.608;1.236;2023-02-15T06:15:07;4.50;99.90
34768;DHT22;21755;43.608;1.236;2023-02-15T06:17:33;4.50;99.90
34768;DHT22;21755;43.608;1.236;2023-02-15T06:19:59;4.50;99.90
34768;DHT22;21755;43.608;1.236;2023-02-15T06:22:25;4.40;99.90
34768;DHT22;21755;43.608;1.236;2023-02-15T06:24:51;4.40;99.90
34768;DHT22;21755;43.608;1.236;2023-02-15T06:27:17;4.30;99.90
34768;DHT22;21755;43.608;1.236;2023-02-15T06:29:43;4.30;99.90
34768;DHT22;21755;43.608;1.236;2023-02-15T06:32:09;4.30;99.90
34768;DHT22;21755;43.608;1.236;2023-02-15T06:34:35;4.40;99.90
34768;DHT22;21755;43.608;1.236;2023-02-15T06:37:00;4.40;99.90
34768;DHT22;21755;43.608;1.236;2023-02-15T06:39:26;4.40;99.90
34768;DHT22;21755;43.608;1.236;2023-02-15T06:41:52;4.50;99.90
34768;DHT22;21755;43.608;1.236;2023-02-15T06:44:18;4.40;99.90
34768;DHT22;21755;43.608;1.236;2023-02-15T06:46:44;4.40;99.90
34768;DHT22;21755;43.608;1.236;2023-02-15T06:49:10;4.40;99.90
34768;DHT22;21755;43.608;1.236;2023-02-15T06:51:36;4.40;99.90
34768;DHT22;21755;43.608;1.236;2023-02-15T06:54:02;4.30;99.90
34768;DHT22;21755;43.608;1.236;2023-02-15T06:56:28;4.40;99.90
34768;DHT22;21755;43.608;1.236;2023-02-15T06:58:55;4.30;99.90
34768;DHT22;21755;43.608;1.236;2023-02-15T07:01:20;4.40;99.90
34768;DHT22;21755;43.608;1.236;2023-02-15T07:03:46;4.30;99.90
34768;DHT22;21755;43.608;1.236;2023-02-15T07:06:12;4.30;99.90
34768;DHT22;21755;43.608;1.236;2023-02-15T07:08:38;4.20;99.90
34768;DHT22;21755;43.608;1.236;2023-02-15T07:11:05;4.10;99.90
34768;DHT22;21755;43.608;1.236;2023-02-15T07:13:50;4.10;99.90
34768;DHT22;21755;43.608;1.236;2023-02-15T07:16:18;4.10;99.90
34768;DHT22;21755;43.608;1.236;2023-02-15T07:18:44;4.10;99.90
34768;DHT22;21755;43.608;1.236;2023-02-15T07:21:10;4.20;99.90
34768;DHT22;21755;43.608;1.236;2023-02-15T07:23:38;4.20;99.90
34768;DHT22;21755;43.608;1.236;2023-02-15T07:26:05;4.20;99.90
34768;DHT22;21755;43.608;1.236;2023-02-15T07:28:31;4.30;99.90
34768;DHT22;21755;43.608;1.236;2023-02-15T07:30:57;4.30;99.90
34768;DHT22;21755;43.608;1.236;2023-02-15T07:33:23;4.30;99.90
34768;DHT22;21755;43.608;1.236;2023-02-15T07:35:52;4.40;99.90
34768;DHT22;21755;43.608;1.236;2023-02-15T07:38:18;4.40;99.90
34768;DHT22;21755;43.608;1.236;2023-02-15T07:40:45;4.40;99.90
34768;DHT22;21755;43.608;1.236;2023-02-15T07:43:11;4.40;99.90
34768;DHT22;21755;43.608;1.236;2023-02-15T07:45:37;4.40;99.90
34768;DHT22;21755;43.608;1.236;2023-02-15T07:48:03;7.00;99.90
34768;DHT22;21755;43.608;1.236;2023-02-15T07:50:30;9.70;99.90
34768;DHT22;21755;43.608;1.236;2023-02-15T07:52:57;10.40;99.90
34768;DHT22;21755;43.608;1.236;2023-02-15T07:55:23;11.10;99.90
34768;DHT22;21755;43.608;1.236;2023-02-15T07:57:51;9.80;99.90
34768;DHT22;21755;43.608;1.236;2023-02-15T08:00:20;8.60;99.90
34768;DHT22;21755;43.608;1.236;2023-02-15T08:02:54;7.50;99.90
34768;DHT22;21755;43.608;1.236;2023-02-15T08:05:46;6.80;99.90
34768;DHT22;21755;43.608;1.236;2023-02-15T08:08:12;6.20;99.90
34768;DHT22;21755;43.608;1.236;2023-02-15T08:11:20;5.90;99.90
34768;DHT22;21755;43.608;1.236;2023-02-15T08:14:08;5.70;99.90
34768;DHT22;21755;43.608;1.236;2023-02-15T08:16:39;5.60;99.90
34768;DHT22;21755;43.608;1.236;2023-02-15T08:19:11;5.60;99.90
34768;DHT22;21755;43.608;1.236;2023-02-15T08:21:40;5.70;99.90
34768;DHT22;21755;43.608;1.236;2023-02-15T08:24:07;5.70;99.90
34768;DHT22;21755;43.608;1.236;2023-02-15T08:26:34;5.70;99.90
34768;DHT22;21755;43.608;1.236;2023-02-15T08:29:00;5.80;99.90
34768;DHT22;21755;43.608;1.236;2023-02-15T08:31:27;5.90;99.90
34768;DHT22;21755;43.608;1.236;2023-02-15T08:33:55;6.10;99.90
34768;DHT22;21755;43.608;1.236;2023-02-15T08:36:24;6.20;99.90
34768;DHT22;21755;43.608;1.236;2023-02-15T08:38:50;6.30;99.90
34768;DHT22;21755;43.608;1.236;2023-02-15T08:41:24;6.30;99.90
34768;DHT22;21755;43.608;1.236;2023-02-15T08:43:53;6.50;99.90
34768;DHT22;21755;43.608;1.236;2023-02-15T08:46:20;6.60;99.90
34768;DHT22;21755;43.608;1.236;2023-02-15T08:48:47;6.80;99.90
34768;DHT22;21755;43.608;1.236;2023-02-15T08:51:21;7.00;99.90
34768;DHT22;21755;43.608;1.236;2023-02-15T08:53:50;7.20;99.90
34768;DHT22;21755;43.608;1.236;2023-02-15T08:56:18;7.40;99.90
34768;DHT22;21755;43.608;1.236;2023-02-15T08:58:44;7.60;99.90
34768;DHT22;21755;43.608;1.236;2023-02-15T09:01:12;7.70;99.90
34768;DHT22;21755;43.608;1.236;2023-02-15T09:03:39;7.80;99.90
34768;DHT22;21755;43.608;1.236;2023-02-15T09:06:06;7.90;99.90
34768;DHT22;21755;43.608;1.236;2023-02-15T09:08:32;8.00;99.90
34768;DHT22;21755;43.608;1.236;2023-02-15T09:11:18;8.10;99.90
34768;DHT22;21755;43.608;1.236;2023-02-15T09:13:54;8.10;99.90
34768;DHT22;21755;43.608;1.236;2023-02-15T09:16:22;8.20;99.90
34768;DHT22;21755;43.608;1.236;2023-02-15T09:18:50;8.30;99.90
34768;DHT22;21755;43.608;1.236;2023-02-15T09:21:21;8.40;99.90
34768;DHT22;21755;43.608;1.236;2023-02-15T09:23:50;8.50;99.90
34768;DHT22;21755;43.608;1.236;2023-02-15T09:26:18;8.60;99.90
34768;DHT22;21755;43.608;1.236;2023-02-15T09:28:45;8.70;99.90
34768;DHT22;21755;43.608;1.236;2023-02-15T09:31:14;8.70;99.90
34768;DHT22;21755;43.608;1.236;2023-02-15T09:33:45;8.80;99.90
34768;DHT22;21755;43.608;1.236;2023-02-15T09:38:41;9.10;99.90
34768;DHT22;21755;43.608;1.236;2023-02-15T09:49:33;9.80;99.90
34768;DHT22;21755;43.608;1.236;2023-02-15T09:58:07;10.40;99.90
34768;DHT22;21755;43.608;1.236;2023-02-15T10:03:53;10.80;99.90
34768;DHT22;21755;43.608;1.236;2023-02-15T10:12:39;11.20;99.90
34768;DHT22;21755;43.608;1.236;2023-02-15T10:18:05;11.00;99.90
34768;DHT22;21755;43.608;1.236;2023-02-15T10:21:03;11.00;99.90
34768;DHT22;21755;43.608;1.236;2023-02-15T10:26:25;11.20;99.90
34768;DHT22;21755;43.608;1.236;2023-02-15T10:31:49;11.40;99.90
34768;DHT22;21755;43.608;1.236;2023-02-15T10:48:02;11.80;99.90
34768;DHT22;21755;43.608;1.236;2023-02-15T10:50:52;11.80;99.90
34768;DHT22;21755;43.608;1.236;2023-02-15T11:02:04;12.10;99.90
34768;DHT22;21755;43.608;1.236;2023-02-15T11:07:41;12.30;99.90
34768;DHT22;21755;43.608;1.236;2023-02-15T11:13:17;12.50;99.90
34768;DHT22;21755;43.608;1.236;2023-02-15T11:15:57;12.70;99.90
34768;DHT22;21755;43.608;1.236;2023-02-15T11:18:36;12.60;99.90
34768;DHT22;21755;43.608;1.236;2023-02-15T11:23:35;12.70;99.90
34768;DHT22;21755;43.608;1.236;2023-02-15T11:26:11;12.80;99.90
34768;DHT22;21755;43.608;1.236;2023-02-15T11:29:05;12.90;99.90
34768;DHT22;21755;43.608;1.236;2023-02-15T11:31:34;13.00;99.90
34768;DHT22;21755;43.608;1.236;2023-02-15T11:34:10;13.00;99.90
34768;DHT22;21755;43.608;1.236;2023-02-15T11:36:40;13.10;99.90
34768;DHT22;21755;43.608;1.236;2023-02-15T11:39:13;13.20;99.90
34768;DHT22;21755;43.608;1.236;2023-02-15T11:41:49;13.20;99.90
34768;DHT22;21755;43.608;1.236;2023-02-15T11:44:24;13.30;99.90
34768;DHT22;21755;43.608;1.236;2023-02-15T11:46:52;13.40;99.90
34768;DHT22;21755;43.608;1.236;2023-02-15T11:49:29;13.50;99.90
34768;DHT22;21755;43.608;1.236;2023-02-15T11:51:57;13.60;99.90
34768;DHT22;21755;43.608;1.236;2023-02-15T11:54:29;13.50;99.90
34768;DHT22;21755;43.608;1.236;2023-02-15T11:57:26;13.50;99.90
34768;DHT22;21755;43.608;1.236;2023-02-15T11:59:56;13.50;99.90
34768;DHT22;21755;43.608;1.236;2023-02-15T12:02:23;13.50;99.90
34768;DHT22;21755;43.608;1.236;2023-02-15T12:04:59;13.40;99.90
34768;DHT22;21755;43.608;1.236;2023-02-15T12:07:34;13.40;99.90
34768;DHT22;21755;43.608;1.236;2023-02-15T12:10:26;13.50;99.90
34768;DHT22;21755;43.608;1.236;2023-02-15T12:13:13;13.50;99.90
34768;DHT22;21755;43.608;1.236;2023-02-15T12:15:43;13.60;99.90
34768;DHT22;21755;43.608;1.236;2023-02-15T12:18:39;13.50;99.90
34768;DHT22;21755;43.608;1.236;2023-02-15T12:21:39;13.60;99.90
34768;DHT22;21755;43.608;1.236;2023-02-15T12:24:23;13.60;99.90
34768;DHT22;21755;43.608;1.236;2023-02-15T12:27:21;13.70;99.90
34768;DHT22;21755;43.608;1.236;2023-02-15T12:32:25;14.10;99.90
34768;DHT22;21755;43.608;1.236;2023-02-15T12:34:59;14.10;99.90
34768;DHT22;21755;43.608;1.236;2023-02-15T12:37:29;14.20;99.90
34768;DHT22;21755;43.608;1.236;2023-02-15T12:39:59;14.10;99.90
34768;DHT22;21755;43.608;1.236;2023-02-15T12:42:27;14.10;99.90
34768;DHT22;21755;43.608;1.236;2023-02-15T12:45:19;14.10;99.90
34768;DHT22;21755;43.608;1.236;2023-02-15T12:47:46;14.10;99.90
34768;DHT22;21755;43.608;1.236;2023-02-15T12:50:23;14.20;99.90
34768;DHT22;21755;43.608;1.236;2023-02-15T12:53:13;14.10;99.90
34768;DHT22;21755;43.608;1.236;2023-02-15T12:55:50;14.10;99.90
34768;DHT22;21755;43.608;1.236;2023-02-15T13:03:30;14.20;99.90
34768;DHT22;21755;43.608;1.236;2023-02-15T13:05:57;14.20;99.90
34768;DHT22;21755;43.608;1.236;2023-02-15T13:08:31;14.20;99.90
34768;DHT22;21755;43.608;1.236;2023-02-15T13:11:08;14.20;99.90
34768;DHT22;21755;43.608;1.236;2023-02-15T13:14:15;14.20;99.90
34768;DHT22;21755;43.608;1.236;2023-02-15T13:16:44;14.20;99.90
34768;DHT22;21755;43.608;1.236;2023-02-15T13:19:19;14.30;99.90
34768;DHT22;21755;43.608;1.236;2023-02-15T13:21:51;14.40;99.90
34768;DHT22;21755;43.608;1.236;2023-02-15T13:25:04;14.40;99.90
34768;DHT22;21755;43.608;1.236;2023-02-15T13:27:15;14.30;99.90
34768;DHT22;21755;43.608;1.236;2023-02-15T13:29:45;14.30;99.90
34768;DHT22;21755;43.608;1.236;2023-02-15T13:32:30;14.30;99.90
34768;DHT22;21755;43.608;1.236;2023-02-15T13:35:01;14.30;99.90
34768;DHT22;21755;43.608;1.236;2023-02-15T13:51:43;14.50;99.90
34768;DHT22;21755;43.608;1.236;2023-02-15T14:03:04;14.60;99.90
34768;DHT22;21755;43.608;1.236;2023-02-15T14:09:06;14.60;99.90
34768;DHT22;21755;43.608;1.236;2023-02-15T14:20:24;14.40;99.90
34768;DHT22;21755;43.608;1.236;2023-02-15T14:23:07;14.40;99.90
34768;DHT22;21755;43.608;1.236;2023-02-15T14:25:47;14.40;99.90
34768;DHT22;21755;43.608;1.236;2023-02-15T14:28:22;14.50;99.90
34768;DHT22;21755;43.608;1.236;2023-02-15T14:30:52;14.50;99.90
34768;DHT22;21755;43.608;1.236;2023-02-15T14:33:32;14.60;99.90
34768;DHT22;21755;43.608;1.236;2023-02-15T14:36:01;14.50;99.90
34768;DHT22;21755;43.608;1.236;2023-02-15T14:38:39;14.60;99.90
34768;DHT22;21755;43.608;1.236;2023-02-15T14:41:12;14.60;99.90
34768;DHT22;21755;43.608;1.236;2023-02-15T14:49:12;14.60;99.90
34768;DHT22;21755;43.608;1.236;2023-02-15T14:57:29;14.60;99.90
34768;DHT22;21755;43.608;1.236;2023-02-15T15:05:29;14.70;99.90
34768;DHT22;21755;43.608;1.236;2023-02-15T15:07:58;14.70;99.90
34768;DHT22;21755;43.608;1.236;2023-02-15T15:10:40;14.70;99.90
34768;DHT22;21755;43.608;1.236;2023-02-15T15:13:38;14.70;99.90
34768;DHT22;21755;43.608;1.236;2023-02-15T15:17:08;14.60;99.90
34768;DHT22;21755;43.608;1.236;2023-02-15T15:19:10;14.60;99.90
34768;DHT22;21755;43.608;1.236;2023-02-15T15:35:47;14.30;99.90
34768;DHT22;21755;43.608;1.236;2023-02-15T15:49:55;14.20;99.90
34768;DHT22;21755;43.608;1.236;2023-02-15T15:52:22;14.10;99.90
34768;DHT22;21755;43.608;1.236;2023-02-15T15:54:57;14.10;99.90
34768;DHT22;21755;43.608;1.236;2023-02-15T15:57:34;14.10;99.90
34768;DHT22;21755;43.608;1.236;2023-02-15T16:00:00;14.10;99.90
34768;DHT22;21755;43.608;1.236;2023-02-15T16:02:27;14.00;99.90
34768;DHT22;21755;43.608;1.236;2023-02-15T16:04:53;14.00;99.90
34768;DHT22;21755;43.608;1.236;2023-02-15T16:12:47;13.90;99.90
34768;DHT22;21755;43.608;1.236;2023-02-15T16:15:20;13.80;99.90
34768;DHT22;21755;43.608;1.236;2023-02-15T16:17:52;13.80;99.90
34768;DHT22;21755;43.608;1.236;2023-02-15T16:20:24;13.70;99.90
34768;DHT22;21755;43.608;1.236;2023-02-15T16:23:08;13.70;99.90
34768;DHT22;21755;43.608;1.236;2023-02-15T16:28:29;13.50;99.90
34768;DHT22;21755;43.608;1.236;2023-02-15T16:31:05;13.50;99.90
34768;DHT22;21755;43.608;1.236;2023-02-15T16:33:36;13.40;99.90
34768;DHT22;21755;43.608;1.236;2023-02-15T16:36:03;13.40;99.90
34768;DHT22;21755;43.608;1.236;2023-02-15T16:41:15;13.30;99.90
34768;DHT22;21755;43.608;1.236;2023-02-15T16:43:44;13.20;99.90
34768;DHT22;21755;43.608;1.236;2023-02-15T16:47:00;13.20;99.90
34768;DHT22;21755;43.608;1.236;2023-02-15T16:49:04;13.20;99.90
34768;DHT22;21755;43.608;1.236;2023-02-15T16:51:33;13.10;99.90
34768;DHT22;21755;43.608;1.236;2023-02-15T16:54:07;13.00;99.90
34768;DHT22;21755;43.608;1.236;2023-02-15T16:56:34;12.90;99.90
34768;DHT22;21755;43.608;1.236;2023-02-15T16:59:02;12.90;99.90
34768;DHT22;21755;43.608;1.236;2023-02-15T17:01:31;12.80;99.90
34768;DHT22;21755;43.608;1.236;2023-02-15T17:04:30;12.70;99.90
34768;DHT22;21755;43.608;1.236;2023-02-15T17:07:06;12.60;99.90
34768;DHT22;21755;43.608;1.236;2023-02-15T17:09:55;12.50;99.90
34768;DHT22;21755;43.608;1.236;2023-02-15T17:12:43;12.40;99.90
34768;DHT22;21755;43.608;1.236;2023-02-15T17:18:31;12.20;99.90
34768;DHT22;21755;43.608;1.236;2023-02-15T17:20:52;12.10;99.90
34768;DHT22;21755;43.608;1.236;2023-02-15T17:23:30;12.00;99.90
34768;DHT22;21755;43.608;1.236;2023-02-15T17:25:58;11.90;99.90
34768;DHT22;21755;43.608;1.236;2023-02-15T17:28:27;11.90;99.90
34768;DHT22;21755;43.608;1.236;2023-02-15T17:30:54;11.80;99.90
34768;DHT22;21755;43.608;1.236;2023-02-15T17:33:35;11.70;99.90
34768;DHT22;21755;43.608;1.236;2023-02-15T17:36:04;11.60;99.90
34768;DHT22;21755;43.608;1.236;2023-02-15T17:38:35;11.50;99.90
34768;DHT22;21755;43.608;1.236;2023-02-15T17:41:01;11.40;99.90
34768;DHT22;21755;43.608;1.236;2023-02-15T17:43:27;11.40;99.90
34768;DHT22;21755;43.608;1.236;2023-02-15T17:45:53;11.30;99.90
34768;DHT22;21755;43.608;1.236;2023-02-15T17:51:05;11.10;99.90
34768;DHT22;21755;43.608;1.236;2023-02-15T17:53:32;11.00;99.90
34768;DHT22;21755;43.608;1.236;2023-02-15T17:55:58;11.00;99.90
34768;DHT22;21755;43.608;1.236;2023-02-15T17:58:24;10.90;99.90
34768;DHT22;21755;43.608;1.236;2023-02-15T18:00:57;10.70;99.90
34768;DHT22;21755;43.608;1.236;2023-02-15T18:03:45;10.70;99.90
34768;DHT22;21755;43.608;1.236;2023-02-15T18:06:30;10.70;99.90
34768;DHT22;21755;43.608;1.236;2023-02-15T18:09:18;10.60;99.90
34768;DHT22;21755;43.608;1.236;2023-02-15T18:12:22;10.50;99.90
34768;DHT22;21755;43.608;1.236;2023-02-15T18:14:50;10.50;99.90
34768;DHT22;21755;43.608;1.236;2023-02-15T18:17:17;10.50;99.90
34768;DHT22;21755;43.608;1.236;2023-02-15T18:19:44;10.40;99.90
34768;DHT22;21755;43.608;1.236;2023-02-15T18:22:17;10.40;99.90
34768;DHT22;21755;43.608;1.236;2023-02-15T18:24:46;10.40;99.90
34768;DHT22;21755;43.608;1.236;2023-02-15T18:27:13;10.30;99.90
34768;DHT22;21755;43.608;1.236;2023-02-15T18:29:39;10.20;99.90
34768;DHT22;21755;43.608;1.236;2023-02-15T18:32:16;10.20;99.90
34768;DHT22;21755;43.608;1.236;2023-02-15T18:34:43;10.10;99.90
34768;DHT22;21755;43.608;1.236;2023-02-15T18:37:16;10.10;99.90
34768;DHT22;21755;43.608;1.236;2023-02-15T18:39:45;10.00;99.90
34768;DHT22;21755;43.608;1.236;2023-02-15T18:42:26;10.00;99.90
34768;DHT22;21755;43.608;1.236;2023-02-15T18:44:58;9.90;99.90
34768;DHT22;21755;43.608;1.236;2023-02-15T18:47:24;9.80;99.90
34768;DHT22;21755;43.608;1.236;2023-02-15T18:49:50;9.80;99.90
34768;DHT22;21755;43.608;1.236;2023-02-15T18:52:21;9.80;99.90
34768;DHT22;21755;43.608;1.236;2023-02-15T18:54:53;9.60;99.90
34768;DHT22;21755;43.608;1.236;2023-02-15T18:57:20;9.60;99.90
34768;DHT22;21755;43.608;1.236;2023-02-15T18:59:45;9.50;99.90
34768;DHT22;21755;43.608;1.236;2023-02-15T19:02:13;9.40;99.90
34768;DHT22;21755;43.608;1.236;2023-02-15T19:04:39;9.40;99.90
34768;DHT22;21755;43.608;1.236;2023-02-15T19:07:30;9.30;99.90
34768;DHT22;21755;43.608;1.236;2023-02-15T19:09:58;9.30;99.90
34768;DHT22;21755;43.608;1.236;2023-02-15T19:12:28;9.20;99.90
34768;DHT22;21755;43.608;1.236;2023-02-15T19:14:54;9.20;99.90
34768;DHT22;21755;43.608;1.236;2023-02-15T19:17:22;9.10;99.90